sensor_id;sensor_type;location;lat;lon;timestamp;pressure;altitude;pressure_sealevel;temperature;humidity
45991;BME280;31721;41.740;-88.000;2022-09-09T00:00:58;98573.52;;;26.72;30.29
45991;BME280;31721;41.740;-88.000;2022-09-09T00:03:30;98572.83;;;26.60;30.22
45991;BME280;31721;41.740;-88.000;2022-09-09T00:06:06;98571.48;;;26.62;30.53
45991;BME280;31721;41.740;-88.000;2022-09-09T00:08:44;98571.31;;;26.47;30.60
45991;BME280;31721;41.740;-88.000;2022-09-09T00:11:19;98569.95;;;26.30;30.74
45991;BME280;31721;41.740;-88.000;2022-09-09T00:13:52;98569.06;;;26.29;30.86
45991;BME280;31721;41.740;-88.000;2022-09-09T00:16:24;98570.83;;;26.17;31.17
45991;BME280;31721;41.740;-88.000;2022-09-09T00:18:57;98567.65;;;26.07;31.37
45991;BME280;31721;41.740;-88.000;2022-09-09T00:21:33;98564.35;;;26.05;31.42
45991;BME280;31721;41.740;-88.000;2022-09-09T00:24:09;98560.35;;;25.95;31.76
45991;BME280;31721;41.740;-88.000;2022-09-09T00:26:41;98560.21;;;25.89;31.87
45991;BME280;31721;41.740;-88.000;2022-09-09T00:29:17;98561.01;;;25.88;32.00
45991;BME280;31721;41.740;-88.000;2022-09-09T00:31:49;98559.37;;;25.69;32.14
45991;BME280;31721;41.740;-88.000;2022-09-09T00:34:21;98557.33;;;25.65;32.31
45991;BME280;31721;41.740;-88.000;2022-09-09T00:36:52;98558.01;;;25.55;32.30
45991;BME280;31721;41.740;-88.000;2022-09-09T00:39:25;98560.77;;;25.52;32.39
45991;BME280;31721;41.740;-88.000;2022-09-09T00:42:05;98567.38;;;25.46;32.42
45991;BME280;31721;41.740;-88.000;2022-09-09T00:44:38;98570.71;;;25.20;32.51
45991;BME280;31721;41.740;-88.000;2022-09-09T00:47:24;98573.11;;;25.06;32.63
45991;BME280;31721;41.740;-88.000;2022-09-09T00:50:00;98574.40;;;24.92;32.81
45991;BME280;31721;41.740;-88.000;2022-09-09T00:52:36;98572.96;;;24.94;33.09
45991;BME280;31721;41.740;-88.000;2022-09-09T00:55:15;98575.12;;;24.92;33.41
45991;BME280;31721;41.740;-88.000;2022-09-09T00:57:43;98572.16;;;24.90;33.52
45991;BME280;31721;41.740;-88.000;2022-09-09T01:00:30;98577.29;;;24.83;33.54
45991;BME280;31721;41.740;-88.000;2022-09-09T01:03:22;98581.38;;;24.83;33.77
45991;BME280;31721;41.740;-88.000;2022-09-09T01:06:01;98586.97;;;24.73;33.88
45991;BME280;31721;41.740;-88.000;2022-09-09T01:08:42;98590.58;;;24.64;34.07
45991;BME280;31721;41.740;-88.000;2022-09-09T01:11:17;98586.90;;;24.62;34.21
45991;BME280;31721;41.740;-88.000;2022-09-09T01:13:52;98587.72;;;24.53;34.47
45991;BME280;31721;41.740;-88.000;2022-09-09T01:16:20;98591.03;;;24.42;34.70
45991;BME280;31721;41.740;-88.000;2022-09-09T01:18:51;98588.29;;;24.25;34.69
45991;BME280;31721;41.740;-88.000;2022-09-09T01:21:26;98588.22;;;24.22;35.07
45991;BME280;31721;41.740;-88.000;2022-09-09T01:24:11;98590.81;;;24.13;35.20
45991;BME280;31721;41.740;-88.000;2022-09-09T01:26:44;98590.72;;;24.10;35.45
45991;BME280;31721;41.740;-88.000;2022-09-09T01:29:14;98593.16;;;23.93;35.56
45991;BME280;31721;41.740;-88.000;2022-09-09T01:31:51;98591.87;;;23.89;35.69
45991;BME280;31721;41.740;-88.000;2022-09-09T01:34:20;98595.77;;;23.88;36.01
45991;BME280;31721;41.740;-88.000;2022-09-09T01:36:52;98595.75;;;23.64;36.09
45991;BME280;31721;41.740;-88.000;2022-09-09T01:39:22;98595.80;;;23.69;36.31
45991;BME280;31721;41.740;-88.000;2022-09-09T01:41:50;98600.13;;;23.53;36.61
45991;BME280;31721;41.740;-88.000;2022-09-09T01:44:19;98601.11;;;23.42;36.68
45991;BME280;31721;41.740;-88.000;2022-09-09T01:46:47;98601.00;;;23.32;36.86
45991;BME280;31721;41.740;-88.000;2022-09-09T01:49:17;98599.72;;;23.33;37.12
45991;BME280;31721;41.740;-88.000;2022-09-09T01:51:48;98601.74;;;23.28;37.41
45991;BME280;31721;41.740;-88.000;2022-09-09T01:54:17;98602.83;;;23.12;37.25
45991;BME280;31721;41.740;-88.000;2022-09-09T01:56:54;98605.27;;;23.13;37.44
45991;BME280;31721;41.740;-88.000;2022-09-09T01:59:36;98605.22;;;23.04;37.54
45991;BME280;31721;41.740;-88.000;2022-09-09T02:02:10;98605.85;;;23.01;37.82
45991;BME280;31721;41.740;-88.000;2022-09-09T02:04:41;98607.09;;;22.95;37.97
45991;BME280;31721;41.740;-88.000;2022-09-09T02:07:19;98608.82;;;22.90;38.09
45991;BME280;31721;41.740;-88.000;2022-09-09T02:09:58;98612.13;;;22.92;38.32
45991;BME280;31721;41.740;-88.000;2022-09-09T02:12:29;98614.18;;;22.77;38.29
45991;BME280;31721;41.740;-88.000;2022-09-09T02:15:03;98614.30;;;22.79;38.33
45991;BME280;31721;41.740;-88.000;2022-09-09T02:17:35;98615.88;;;22.74;38.69
45991;BME280;31721;41.740;-88.000;2022-09-09T02:20:07;98617.88;;;22.69;38.69
45991;BME280;31721;41.740;-88.000;2022-09-09T02:22:37;98619.23;;;22.65;38.73
45991;BME280;31721;41.740;-88.000;2022-09-09T02:25:09;98619.14;;;22.58;38.85
45991;BME280;31721;41.740;-88.000;2022-09-09T02:27:39;98622.94;;;22.51;38.98
45991;BME280;31721;41.740;-88.000;2022-09-09T02:30:09;98626.66;;;22.46;38.98
45991;BME280;31721;41.740;-88.000;2022-09-09T02:32:38;98624.04;;;22.43;39.27
45991;BME280;31721;41.740;-88.000;2022-09-09T02:35:10;98624.14;;;22.37;39.34
45991;BME280;31721;41.740;-88.000;2022-09-09T02:37:40;98621.17;;;22.39;39.55
45991;BME280;31721;41.740;-88.000;2022-09-09T02:40:11;98621.85;;;22.26;39.85
45991;BME280;31721;41.740;-88.000;2022-09-09T02:42:39;98622.41;;;22.17;39.66
45991;BME280;31721;41.740;-88.000;2022-09-09T02:45:09;98625.15;;;22.14;39.91
45991;BME280;31721;41.740;-88.000;2022-09-09T02:47:41;98625.64;;;22.13;40.26
45991;BME280;31721;41.740;-88.000;2022-09-09T02:50:15;98623.91;;;22.04;40.18
45991;BME280;31721;41.740;-88.000;2022-09-09T02:52:52;98620.47;;;22.04;40.36
45991;BME280;31721;41.740;-88.000;2022-09-09T02:55:29;98622.00;;;21.98;40.52
45991;BME280;31721;41.740;-88.000;2022-09-09T02:58:02;98624.68;;;21.91;40.71
45991;BME280;31721;41.740;-88.000;2022-09-09T03:00:32;98626.98;;;21.86;40.72
45991;BME280;31721;41.740;-88.000;2022-09-09T03:03:00;98624.39;;;21.83;40.74
45991;BME280;31721;41.740;-88.000;2022-09-09T03:05:28;98624.63;;;21.77;40.85
45991;BME280;31721;41.740;-88.000;2022-09-09T03:07:56;98624.49;;;21.73;40.92
45991;BME280;31721;41.740;-88.000;2022-09-09T03:10:24;98626.17;;;21.68;41.00
45991;BME280;31721;41.740;-88.000;2022-09-09T03:12:51;98628.79;;;21.63;41.19
45991;BME280;31721;41.740;-88.000;2022-09-09T03:15:19;98630.88;;;21.57;41.29
45991;BME280;31721;41.740;-88.000;2022-09-09T03:17:47;98634.36;;;21.52;41.42
45991;BME280;31721;41.740;-88.000;2022-09-09T03:20:15;98635.76;;;21.55;41.47
45991;BME280;31721;41.740;-88.000;2022-09-09T03:22:43;98638.00;;;21.42;41.33
45991;BME280;31721;41.740;-88.000;2022-09-09T03:25:10;98641.16;;;21.39;41.25
45991;BME280;31721;41.740;-88.000;2022-09-09T03:27:38;98643.30;;;21.43;41.40
45991;BME280;31721;41.740;-88.000;2022-09-09T03:30:07;98641.23;;;21.47;41.48
45991;BME280;31721;41.740;-88.000;2022-09-09T03:32:34;98641.49;;;21.29;41.74
45991;BME280;31721;41.740;-88.000;2022-09-09T03:35:02;98639.68;;;21.25;41.97
45991;BME280;31721;41.740;-88.000;2022-09-09T03:37:29;98641.37;;;21.29;42.02
45991;BME280;31721;41.740;-88.000;2022-09-09T03:39:57;98639.77;;;21.18;41.90
45991;BME280;31721;41.740;-88.000;2022-09-09T03:42:25;98642.46;;;21.21;41.95
45991;BME280;31721;41.740;-88.000;2022-09-09T03:44:53;98640.80;;;21.27;42.07
45991;BME280;31721;41.740;-88.000;2022-09-09T03:47:21;98640.92;;;21.25;42.01
45991;BME280;31721;41.740;-88.000;2022-09-09T03:49:48;98643.83;;;21.11;42.10
45991;BME280;31721;41.740;-88.000;2022-09-09T03:52:16;98644.03;;;21.19;42.28
45991;BME280;31721;41.740;-88.000;2022-09-09T03:54:44;98647.70;;;21.01;42.26
45991;BME280;31721;41.740;-88.000;2022-09-09T03:57:12;98649.37;;;21.12;42.20
45991;BME280;31721;41.740;-88.000;2022-09-09T03:59:40;98654.04;;;21.09;42.26
45991;BME280;31721;41.740;-88.000;2022-09-09T04:02:08;98657.47;;;20.99;42.37
45991;BME280;31721;41.740;-88.000;2022-09-09T04:04:35;98659.39;;;21.06;42.53
45991;BME280;31721;41.740;-88.000;2022-09-09T04:07:03;98659.13;;;20.96;42.57
45991;BME280;31721;41.740;-88.000;2022-09-09T04:09:31;98660.36;;;21.03;42.73
45991;BME280;31721;41.740;-88.000;2022-09-09T04:11:59;98659.97;;;21.00;42.77
45991;BME280;31721;41.740;-88.000;2022-09-09T04:14:26;98657.80;;;20.96;42.84
45991;BME280;31721;41.740;-88.000;2022-09-09T04:16:54;98657.21;;;20.93;42.85
45991;BME280;31721;41.740;-88.000;2022-09-09T04:19:22;98658.09;;;20.83;42.96
45991;BME280;31721;41.740;-88.000;2022-09-09T04:21:50;98658.94;;;20.80;43.04
45991;BME280;31721;41.740;-88.000;2022-09-09T04:24:18;98660.69;;;20.87;43.04
45991;BME280;31721;41.740;-88.000;2022-09-09T04:26:45;98662.75;;;20.75;43.14
45991;BME280;31721;41.740;-88.000;2022-09-09T04:29:18;98663.91;;;20.89;43.29
45991;BME280;31721;41.740;-88.000;2022-09-09T04:31:46;98666.12;;;20.79;43.32
45991;BME280;31721;41.740;-88.000;2022-09-09T04:34:14;98667.30;;;20.76;43.34
45991;BME280;31721;41.740;-88.000;2022-09-09T04:36:42;98667.69;;;20.65;43.47
45991;BME280;31721;41.740;-88.000;2022-09-09T04:39:10;98664.11;;;20.73;43.65
45991;BME280;31721;41.740;-88.000;2022-09-09T04:41:37;98660.94;;;20.76;43.75
45991;BME280;31721;41.740;-88.000;2022-09-09T04:44:05;98662.64;;;20.66;43.97
45991;BME280;31721;41.740;-88.000;2022-09-09T04:46:33;98664.89;;;20.62;44.12
45991;BME280;31721;41.740;-88.000;2022-09-09T04:49:01;98667.31;;;20.75;44.25
45991;BME280;31721;41.740;-88.000;2022-09-09T04:51:28;98665.47;;;20.54;44.43
45991;BME280;31721;41.740;-88.000;2022-09-09T04:53:56;98667.84;;;20.51;44.56
45991;BME280;31721;41.740;-88.000;2022-09-09T04:56:24;98670.08;;;20.55;44.64
45991;BME280;31721;41.740;-88.000;2022-09-09T04:58:52;98671.03;;;20.43;44.52
45991;BME280;31721;41.740;-88.000;2022-09-09T05:01:21;98670.00;;;20.39;44.61
45991;BME280;31721;41.740;-88.000;2022-09-09T05:03:49;98670.98;;;20.53;44.53
45991;BME280;31721;41.740;-88.000;2022-09-09T05:06:19;98673.12;;;20.42;44.74
45991;BME280;31721;41.740;-88.000;2022-09-09T05:08:48;98673.40;;;20.37;44.81
45991;BME280;31721;41.740;-88.000;2022-09-09T05:11:18;98672.90;;;20.35;45.10
45991;BME280;31721;41.740;-88.000;2022-09-09T05:13:46;98673.34;;;20.32;44.92
45991;BME280;31721;41.740;-88.000;2022-09-09T05:16:15;98676.90;;;20.24;44.57
45991;BME280;31721;41.740;-88.000;2022-09-09T05:18:43;98677.90;;;20.12;44.90
45991;BME280;31721;41.740;-88.000;2022-09-09T05:21:13;98681.08;;;20.18;45.10
45991;BME280;31721;41.740;-88.000;2022-09-09T05:23:41;98682.09;;;20.16;45.14
45991;BME280;31721;41.740;-88.000;2022-09-09T05:26:12;98685.29;;;20.07;44.99
45991;BME280;31721;41.740;-88.000;2022-09-09T05:28:46;98690.46;;;20.12;44.94
45991;BME280;31721;41.740;-88.000;2022-09-09T05:31:15;98692.81;;;20.10;45.03
45991;BME280;31721;41.740;-88.000;2022-09-09T05:33:45;98692.30;;;20.14;45.02
45991;BME280;31721;41.740;-88.000;2022-09-09T05:36:15;98695.35;;;20.12;45.18
45991;BME280;31721;41.740;-88.000;2022-09-09T05:38:43;98698.99;;;19.99;45.29
45991;BME280;31721;41.740;-88.000;2022-09-09T05:41:12;98702.71;;;19.98;45.36
45991;BME280;31721;41.740;-88.000;2022-09-09T05:43:39;98700.20;;;19.95;45.20
45991;BME280;31721;41.740;-88.000;2022-09-09T05:46:09;98699.16;;;19.99;45.28
45991;BME280;31721;41.740;-88.000;2022-09-09T05:48:39;98700.23;;;19.97;45.43
45991;BME280;31721;41.740;-88.000;2022-09-09T05:51:09;98703.67;;;19.84;45.56
45991;BME280;31721;41.740;-88.000;2022-09-09T05:53:37;98707.82;;;19.80;45.67
45991;BME280;31721;41.740;-88.000;2022-09-09T05:56:06;98708.98;;;19.87;45.73
45991;BME280;31721;41.740;-88.000;2022-09-09T05:58:34;98710.99;;;19.83;45.93
45991;BME280;31721;41.740;-88.000;2022-09-09T06:01:04;98710.81;;;19.80;45.75
45991;BME280;31721;41.740;-88.000;2022-09-09T06:03:32;98707.84;;;19.77;45.82
45991;BME280;31721;41.740;-88.000;2022-09-09T06:06:01;98708.17;;;19.74;45.79
45991;BME280;31721;41.740;-88.000;2022-09-09T06:08:29;98709.82;;;19.73;45.99
45991;BME280;31721;41.740;-88.000;2022-09-09T06:11:02;98708.24;;;19.77;45.89
45991;BME280;31721;41.740;-88.000;2022-09-09T06:13:30;98701.37;;;19.72;45.94
45991;BME280;31721;41.740;-88.000;2022-09-09T06:15:58;98698.36;;;19.64;46.25
45991;BME280;31721;41.740;-88.000;2022-09-09T06:18:26;98692.91;;;19.61;46.46
45991;BME280;31721;41.740;-88.000;2022-09-09T06:20:55;98690.93;;;19.59;46.55
45991;BME280;31721;41.740;-88.000;2022-09-09T06:23:23;98688.19;;;19.55;46.47
45991;BME280;31721;41.740;-88.000;2022-09-09T06:25:51;98688.32;;;19.51;46.48
45991;BME280;31721;41.740;-88.000;2022-09-09T06:28:19;98686.35;;;19.47;46.43
45991;BME280;31721;41.740;-88.000;2022-09-09T06:30:47;98687.88;;;19.54;46.64
45991;BME280;31721;41.740;-88.000;2022-09-09T06:33:14;98685.42;;;19.51;46.75
45991;BME280;31721;41.740;-88.000;2022-09-09T06:35:41;98683.05;;;19.42;46.82
45991;BME280;31721;41.740;-88.000;2022-09-09T06:38:09;98680.77;;;19.41;46.62
45991;BME280;31721;41.740;-88.000;2022-09-09T06:40:36;98678.27;;;19.53;46.55
45991;BME280;31721;41.740;-88.000;2022-09-09T06:43:04;98677.67;;;19.38;46.66
45991;BME280;31721;41.740;-88.000;2022-09-09T06:45:32;98679.12;;;19.37;46.86
45991;BME280;31721;41.740;-88.000;2022-09-09T06:47:59;98676.60;;;19.50;46.93
45991;BME280;31721;41.740;-88.000;2022-09-09T06:50:27;98677.11;;;19.47;46.93
45991;BME280;31721;41.740;-88.000;2022-09-09T06:52:55;98680.64;;;19.29;47.12
45991;BME280;31721;41.740;-88.000;2022-09-09T06:55:23;98683.44;;;19.26;47.21
45991;BME280;31721;41.740;-88.000;2022-09-09T06:57:51;98680.09;;;19.23;47.30
45991;BME280;31721;41.740;-88.000;2022-09-09T07:00:18;98673.47;;;19.27;47.26
45991;BME280;31721;41.740;-88.000;2022-09-09T07:02:45;98670.24;;;19.26;47.50
45991;BME280;31721;41.740;-88.000;2022-09-09T07:05:13;98667.07;;;19.29;47.44
45991;BME280;31721;41.740;-88.000;2022-09-09T07:07:41;98670.86;;;19.11;47.66
45991;BME280;31721;41.740;-88.000;2022-09-09T07:10:09;98670.60;;;19.14;47.56
45991;BME280;31721;41.740;-88.000;2022-09-09T07:12:36;98669.63;;;19.06;47.52
45991;BME280;31721;41.740;-88.000;2022-09-09T07:15:05;98669.70;;;19.04;47.61
45991;BME280;31721;41.740;-88.000;2022-09-09T07:17:33;98669.49;;;19.17;47.75
45991;BME280;31721;41.740;-88.000;2022-09-09T07:20:01;98666.95;;;19.16;47.93
45991;BME280;31721;41.740;-88.000;2022-09-09T07:22:29;98665.21;;;19.06;47.95
45991;BME280;31721;41.740;-88.000;2022-09-09T07:24:57;98664.09;;;19.05;48.07
45991;BME280;31721;41.740;-88.000;2022-09-09T07:27:25;98660.91;;;19.10;47.94
45991;BME280;31721;41.740;-88.000;2022-09-09T07:29:52;98662.91;;;19.08;47.98
45991;BME280;31721;41.740;-88.000;2022-09-09T07:32:19;98664.43;;;18.99;47.94
45991;BME280;31721;41.740;-88.000;2022-09-09T07:34:47;98662.74;;;19.03;47.88
45991;BME280;31721;41.740;-88.000;2022-09-09T07:37:15;98666.28;;;18.93;47.99
45991;BME280;31721;41.740;-88.000;2022-09-09T07:39:43;98664.76;;;18.94;48.15
45991;BME280;31721;41.740;-88.000;2022-09-09T07:42:10;98665.55;;;18.84;48.28
45991;BME280;31721;41.740;-88.000;2022-09-09T07:44:38;98669.28;;;18.90;48.52
45991;BME280;31721;41.740;-88.000;2022-09-09T07:47:06;98671.53;;;18.88;48.54
45991;BME280;31721;41.740;-88.000;2022-09-09T07:49:33;98671.11;;;18.85;48.59
45991;BME280;31721;41.740;-88.000;2022-09-09T07:52:01;98667.50;;;18.88;48.56
45991;BME280;31721;41.740;-88.000;2022-09-09T07:54:28;98667.18;;;18.86;48.55
45991;BME280;31721;41.740;-88.000;2022-09-09T07:56:56;98668.45;;;18.82;48.81
45991;BME280;31721;41.740;-88.000;2022-09-09T07:59:23;98670.55;;;18.80;48.86
45991;BME280;31721;41.740;-88.000;2022-09-09T08:01:52;98675.34;;;18.69;48.96
45991;BME280;31721;41.740;-88.000;2022-09-09T08:04:21;98673.92;;;18.73;49.07
45991;BME280;31721;41.740;-88.000;2022-09-09T08:06:51;98672.11;;;18.70;49.12
45991;BME280;31721;41.740;-88.000;2022-09-09T08:09:20;98676.77;;;18.68;49.17
45991;BME280;31721;41.740;-88.000;2022-09-09T08:11:48;98680.53;;;18.63;49.02
45991;BME280;31721;41.740;-88.000;2022-09-09T08:14:16;98681.76;;;18.61;48.98
45991;BME280;31721;41.740;-88.000;2022-09-09T08:16:45;98685.05;;;18.59;48.88
45991;BME280;31721;41.740;-88.000;2022-09-09T08:19:13;98684.64;;;18.53;49.13
45991;BME280;31721;41.740;-88.000;2022-09-09T08:21:41;98687.46;;;18.59;49.27
45991;BME280;31721;41.740;-88.000;2022-09-09T08:24:10;98690.40;;;18.56;49.33
45991;BME280;31721;41.740;-88.000;2022-09-09T08:26:40;98694.93;;;18.51;49.20
45991;BME280;31721;41.740;-88.000;2022-09-09T08:29:09;98700.62;;;18.49;49.34
45991;BME280;31721;41.740;-88.000;2022-09-09T08:31:39;98703.55;;;18.45;49.42
45991;BME280;31721;41.740;-88.000;2022-09-09T08:34:08;98703.34;;;18.43;49.44
45991;BME280;31721;41.740;-88.000;2022-09-09T08:36:37;98708.23;;;18.49;49.71
45991;BME280;31721;41.740;-88.000;2022-09-09T08:39:06;98713.95;;;18.35;49.65
45991;BME280;31721;41.740;-88.000;2022-09-09T08:42:46;98714.33;;;18.40;49.82
45991;BME280;31721;41.740;-88.000;2022-09-09T08:45:37;98715.15;;;18.25;49.85
45991;BME280;31721;41.740;-88.000;2022-09-09T08:48:23;98714.36;;;18.22;49.86
45991;BME280;31721;41.740;-88.000;2022-09-09T08:50:57;98708.67;;;18.26;49.81
45991;BME280;31721;41.740;-88.000;2022-09-09T08:53:27;98702.76;;;18.14;49.95
45991;BME280;31721;41.740;-88.000;2022-09-09T08:55:57;98707.70;;;18.19;50.04
45991;BME280;31721;41.740;-88.000;2022-09-09T08:58:27;98705.49;;;18.06;50.07
45991;BME280;31721;41.740;-88.000;2022-09-09T09:01:15;98705.02;;;18.09;50.15
45991;BME280;31721;41.740;-88.000;2022-09-09T09:03:51;98706.89;;;18.05;50.19
45991;BME280;31721;41.740;-88.000;2022-09-09T09:06:30;98705.83;;;17.89;50.25
45991;BME280;31721;41.740;-88.000;2022-09-09T09:09:11;98705.01;;;17.86;50.13
45991;BME280;31721;41.740;-88.000;2022-09-09T09:11:45;98705.64;;;17.97;50.19
45991;BME280;31721;41.740;-88.000;2022-09-09T09:14:19;98706.03;;;17.92;50.23
45991;BME280;31721;41.740;-88.000;2022-09-09T09:16:52;98705.20;;;17.88;50.38
45991;BME280;31721;41.740;-88.000;2022-09-09T09:19:20;98703.68;;;17.70;50.47
45991;BME280;31721;41.740;-88.000;2022-09-09T09:21:52;98711.25;;;17.77;50.54
45991;BME280;31721;41.740;-88.000;2022-09-09T09:24:25;98715.79;;;17.80;50.52
45991;BME280;31721;41.740;-88.000;2022-09-09T09:26:54;98717.50;;;17.68;50.58
45991;BME280;31721;41.740;-88.000;2022-09-09T09:29:25;98720.62;;;17.66;50.72
45991;BME280;31721;41.740;-88.000;2022-09-09T09:31:56;98718.25;;;17.70;50.76
45991;BME280;31721;41.740;-88.000;2022-09-09T09:34:24;98719.75;;;17.69;50.76
45991;BME280;31721;41.740;-88.000;2022-09-09T09:36:54;98722.14;;;17.64;50.84
45991;BME280;31721;41.740;-88.000;2022-09-09T09:39:26;98721.85;;;17.54;50.92
45991;BME280;31721;41.740;-88.000;2022-09-09T09:41:54;98723.22;;;17.58;51.01
45991;BME280;31721;41.740;-88.000;2022-09-09T09:44:24;98724.60;;;17.55;51.16
45991;BME280;31721;41.740;-88.000;2022-09-09T09:46:52;98726.91;;;17.44;51.14
45991;BME280;31721;41.740;-88.000;2022-09-09T09:49:21;98731.79;;;17.46;51.28
45991;BME280;31721;41.740;-88.000;2022-09-09T09:51:49;98733.20;;;17.43;51.23
45991;BME280;31721;41.740;-88.000;2022-09-09T09:54:25;98731.57;;;17.41;51.39
45991;BME280;31721;41.740;-88.000;2022-09-09T09:56:54;98732.86;;;17.36;51.33
45991;BME280;31721;41.740;-88.000;2022-09-09T09:59:32;98728.96;;;17.35;51.34
45991;BME280;31721;41.740;-88.000;2022-09-09T10:02:15;98728.11;;;17.30;51.43
45991;BME280;31721;41.740;-88.000;2022-09-09T10:04:43;98725.73;;;17.27;51.52
45991;BME280;31721;41.740;-88.000;2022-09-09T10:07:13;98724.22;;;17.25;51.54
45991;BME280;31721;41.740;-88.000;2022-09-09T10:09:44;98722.95;;;17.23;51.55
45991;BME280;31721;41.740;-88.000;2022-09-09T10:12:19;98721.98;;;17.19;51.60
45991;BME280;31721;41.740;-88.000;2022-09-09T10:14:56;98721.55;;;17.16;51.70
45991;BME280;31721;41.740;-88.000;2022-09-09T10:17:33;98725.37;;;17.11;51.84
45991;BME280;31721;41.740;-88.000;2022-09-09T10:20:19;98725.71;;;17.11;51.93
45991;BME280;31721;41.740;-88.000;2022-09-09T10:22:54;98724.06;;;17.07;51.96
45991;BME280;31721;41.740;-88.000;2022-09-09T10:25:36;98726.71;;;17.05;52.01
45991;BME280;31721;41.740;-88.000;2022-09-09T10:28:24;98727.21;;;17.11;51.97
45991;BME280;31721;41.740;-88.000;2022-09-09T10:31:07;98724.91;;;17.00;52.04
45991;BME280;31721;41.740;-88.000;2022-09-09T10:33:43;98724.35;;;17.05;52.18
45991;BME280;31721;41.740;-88.000;2022-09-09T10:36:19;98724.18;;;17.04;52.16
45991;BME280;31721;41.740;-88.000;2022-09-09T10:38:50;98724.03;;;16.95;52.10
45991;BME280;31721;41.740;-88.000;2022-09-09T10:41:32;98722.40;;;16.91;52.23
45991;BME280;31721;41.740;-88.000;2022-09-09T10:44:29;98719.62;;;16.94;52.30
45991;BME280;31721;41.740;-88.000;2022-09-09T10:47:35;98724.62;;;16.89;52.45
45991;BME280;31721;41.740;-88.000;2022-09-09T10:50:27;98730.38;;;16.83;52.27
45991;BME280;31721;41.740;-88.000;2022-09-09T10:53:03;98735.08;;;16.80;52.40
45991;BME280;31721;41.740;-88.000;2022-09-09T10:55:40;98741.30;;;16.88;52.60
45991;BME280;31721;41.740;-88.000;2022-09-09T10:58:14;98751.53;;;16.79;52.62
45991;BME280;31721;41.740;-88.000;2022-09-09T11:00:47;98762.79;;;16.78;52.74
45991;BME280;31721;41.740;-88.000;2022-09-09T11:03:21;98772.10;;;16.83;52.77
45991;BME280;31721;41.740;-88.000;2022-09-09T11:05:53;98776.25;;;16.79;52.82
45991;BME280;31721;41.740;-88.000;2022-09-09T11:08:25;98779.19;;;16.71;52.86
45991;BME280;31721;41.740;-88.000;2022-09-09T11:10:58;98780.15;;;16.70;53.00
45991;BME280;31721;41.740;-88.000;2022-09-09T11:13:32;98780.56;;;16.69;52.91
45991;BME280;31721;41.740;-88.000;2022-09-09T11:16:15;98779.33;;;16.70;52.78
45991;BME280;31721;41.740;-88.000;2022-09-09T11:18:46;98782.94;;;16.66;52.75
45991;BME280;31721;41.740;-88.000;2022-09-09T11:21:25;98788.65;;;16.68;53.03
45991;BME280;31721;41.740;-88.000;2022-09-09T11:23:57;98793.41;;;16.63;53.13
45991;BME280;31721;41.740;-88.000;2022-09-09T11:26:31;98792.74;;;16.58;53.06
45991;BME280;31721;41.740;-88.000;2022-09-09T11:29:16;98791.45;;;16.50;53.00
45991;BME280;31721;41.740;-88.000;2022-09-09T11:31:59;98792.17;;;16.48;53.18
45991;BME280;31721;41.740;-88.000;2022-09-09T11:34:38;98794.36;;;16.52;53.15
45991;BME280;31721;41.740;-88.000;2022-09-09T11:37:19;98793.15;;;16.45;53.31
45991;BME280;31721;41.740;-88.000;2022-09-09T11:40:08;98793.35;;;16.29;53.55
45991;BME280;31721;41.740;-88.000;2022-09-09T11:42:36;98797.49;;;16.24;53.72
45991;BME280;31721;41.740;-88.000;2022-09-09T11:45:21;98802.60;;;16.30;53.81
45991;BME280;31721;41.740;-88.000;2022-09-09T11:47:53;98809.80;;;16.27;53.90
45991;BME280;31721;41.740;-88.000;2022-09-09T11:50:33;98812.84;;;16.17;53.89
45991;BME280;31721;41.740;-88.000;2022-09-09T11:53:20;98818.66;;;16.27;53.83
45991;BME280;31721;41.740;-88.000;2022-09-09T11:55:59;98820.75;;;16.27;53.97
45991;BME280;31721;41.740;-88.000;2022-09-09T11:58:28;98821.92;;;16.28;53.98
45991;BME280;31721;41.740;-88.000;2022-09-09T12:00:57;98823.21;;;16.28;53.89
45991;BME280;31721;41.740;-88.000;2022-09-09T12:03:36;98822.81;;;16.20;54.02
45991;BME280;31721;41.740;-88.000;2022-09-09T12:06:15;98820.27;;;16.29;54.05
45991;BME280;31721;41.740;-88.000;2022-09-09T12:08:48;98825.19;;;16.28;54.10
45991;BME280;31721;41.740;-88.000;2022-09-09T12:11:25;98828.22;;;16.29;54.32
45991;BME280;31721;41.740;-88.000;2022-09-09T12:13:54;98831.41;;;16.30;54.22
45991;BME280;31721;41.740;-88.000;2022-09-09T12:16:32;98832.86;;;16.32;54.32
45991;BME280;31721;41.740;-88.000;2022-09-09T12:19:06;98839.99;;;16.35;54.41
45991;BME280;31721;41.740;-88.000;2022-09-09T12:21:39;98842.42;;;16.37;54.48
45991;BME280;31721;41.740;-88.000;2022-09-09T12:24:10;98848.59;;;16.43;54.51
45991;BME280;31721;41.740;-88.000;2022-09-09T12:26:40;98845.52;;;16.33;54.66
45991;BME280;31721;41.740;-88.000;2022-09-09T12:29:21;98848.38;;;16.41;54.57
45991;BME280;31721;41.740;-88.000;2022-09-09T12:31:56;98849.96;;;16.63;54.72
45991;BME280;31721;41.740;-88.000;2022-09-09T12:34:34;98849.73;;;16.54;54.79
45991;BME280;31721;41.740;-88.000;2022-09-09T12:37:06;98854.00;;;16.63;54.72
45991;BME280;31721;41.740;-88.000;2022-09-09T12:39:42;98851.80;;;16.73;54.75
45991;BME280;31721;41.740;-88.000;2022-09-09T12:42:18;98850.31;;;16.83;54.57
45991;BME280;31721;41.740;-88.000;2022-09-09T12:44:55;98853.11;;;16.94;54.56
45991;BME280;31721;41.740;-88.000;2022-09-09T12:47:27;98856.47;;;17.07;54.57
45991;BME280;31721;41.740;-88.000;2022-09-09T12:49:57;98858.20;;;17.22;54.32
45991;BME280;31721;41.740;-88.000;2022-09-09T12:52:28;98858.16;;;17.33;54.33
45991;BME280;31721;41.740;-88.000;2022-09-09T12:55:01;98858.04;;;17.52;54.41
45991;BME280;31721;41.740;-88.000;2022-09-09T12:57:34;98858.79;;;17.71;54.18
45991;BME280;31721;41.740;-88.000;2022-09-09T13:00:08;98860.18;;;17.97;53.68
45991;BME280;31721;41.740;-88.000;2022-09-09T13:02:47;98862.14;;;18.18;53.50
45991;BME280;31721;41.740;-88.000;2022-09-09T13:05:18;98860.52;;;18.22;53.44